createdAt,value
2022-07-31T00:01:01.021Z,18.38
2022-07-31T00:03:29.079Z,18.38
2022-07-31T00:05:57.294Z,18.38
2022-07-31T00:08:25.924Z,18.37
2022-07-31T00:10:53.978Z,18.35
2022-07-31T00:13:56.558Z,18.37
2022-07-31T00:16:11.718Z,18.41
2022-07-31T00:18:39.860Z,18.43
2022-07-31T00:21:07.987Z,18.51
2022-07-31T00:23:36.053Z,18.54
2022-07-31T00:26:04.177Z,18.53
2022-07-31T00:28:32.909Z,18.57
2022-07-31T00:31:00.999Z,18.65
2022-07-31T00:33:30.764Z,18.63
2022-07-31T00:35:58.885Z,18.69
2022-07-31T00:38:27.623Z,18.75
2022-07-31T00:40:56.270Z,18.80
2022-07-31T00:43:27.565Z,18.81
2022-07-31T00:45:59.443Z,18.83
2022-07-31T00:48:28.082Z,18.84
2022-07-31T00:50:57.947Z,18.91
2022-07-31T00:53:26.193Z,18.90
2022-07-31T00:55:54.823Z,18.97
2022-07-31T00:58:25.039Z,18.97
2022-07-31T01:00:53.311Z,18.93
2022-07-31T01:03:21.609Z,18.89
2022-07-31T01:05:49.674Z,18.85
2022-07-31T01:08:19.139Z,18.78
2022-07-31T01:10:55.303Z,18.68
2022-07-31T01:13:33.861Z,18.58
2022-07-31T01:16:04.404Z,18.51
2022-07-31T01:18:35.814Z,18.40
2022-07-31T01:21:08.639Z,18.26
2022-07-31T01:23:54.944Z,18.13
2022-07-31T01:26:51.097Z,18.00
2022-07-31T01:29:28.161Z,17.85
2022-07-31T01:32:03.897Z,17.70
2022-07-31T01:34:38.113Z,17.55
2022-07-31T01:37:14.861Z,17.43
2022-07-31T01:39:47.616Z,17.31
2022-07-31T01:42:19.557Z,17.22
2022-07-31T01:44:54.233Z,17.26
2022-07-31T01:47:26.275Z,17.40
2022-07-31T01:49:56.908Z,17.38
2022-07-31T01:52:27.734Z,17.46
2022-07-31T01:54:58.482Z,17.53
2022-07-31T01:57:28.443Z,17.57
2022-07-31T02:00:02.817Z,17.57
2022-07-31T02:02:50.358Z,17.66
2022-07-31T02:05:24.111Z,17.64
2022-07-31T02:07:54.291Z,17.61
2022-07-31T02:10:26.111Z,17.62
2022-07-31T02:12:55.393Z,17.60
2022-07-31T02:15:25.533Z,17.54
2022-07-31T02:17:55.446Z,17.60
2022-07-31T02:20:24.897Z,17.54
2022-07-31T02:22:57.934Z,17.57
2022-07-31T02:25:27.793Z,17.53
2022-07-31T02:27:59.277Z,17.48
2022-07-31T02:30:38.520Z,17.41
2022-07-31T02:33:11.064Z,17.26
2022-07-31T02:35:44.036Z,17.27
2022-07-31T02:38:22.770Z,17.34
2022-07-31T02:40:57.461Z,17.22
2022-07-31T02:43:26.645Z,17.07
2022-07-31T02:45:59.345Z,16.98
2022-07-31T02:48:29.094Z,16.90
2022-07-31T02:51:01.324Z,16.87
2022-07-31T02:53:31.496Z,16.76
2022-07-31T02:56:04.515Z,16.68
2022-07-31T02:58:35.618Z,16.61
2022-07-31T03:01:06.916Z,16.54
2022-07-31T03:03:36.214Z,16.54
2022-07-31T03:06:04.458Z,16.49
2022-07-31T03:08:33.665Z,16.50
2022-07-31T03:11:05.675Z,16.61
2022-07-31T03:13:36.627Z,16.64
2022-07-31T03:16:09.001Z,16.65
2022-07-31T03:18:38.554Z,16.75
2022-07-31T03:21:07.639Z,16.81
2022-07-31T03:23:37.175Z,16.85
2022-07-31T03:26:10.322Z,16.88
2022-07-31T03:28:38.403Z,16.92
2022-07-31T03:31:08.770Z,16.92
2022-07-31T03:33:37.697Z,16.88
2022-07-31T03:36:06.644Z,16.88
2022-07-31T03:38:40.931Z,16.84
2022-07-31T03:41:19.492Z,16.83
2022-07-31T03:43:49.187Z,16.80
2022-07-31T03:46:23.437Z,16.83
2022-07-31T03:48:52.843Z,16.84
2022-07-31T03:51:21.835Z,16.86
2022-07-31T03:53:51.546Z,16.85
2022-07-31T03:56:53.572Z,16.91
2022-07-31T03:59:24.062Z,16.99
2022-07-31T04:01:57.664Z,17.08
2022-07-31T04:04:40.362Z,17.23
2022-07-31T04:07:09.261Z,17.34
2022-07-31T04:09:38.518Z,17.40
2022-07-31T04:12:07.957Z,17.46
2022-07-31T04:14:36.292Z,17.51
2022-07-31T04:17:06.577Z,17.56
2022-07-31T04:19:35.077Z,17.58
2022-07-31T04:22:03.693Z,17.63
2022-07-31T04:24:32.739Z,17.65
2022-07-31T04:27:26.967Z,17.72
2022-07-31T04:29:56.801Z,17.75
2022-07-31T04:32:26.299Z,17.84
2022-07-31T04:34:57.893Z,17.92
2022-07-31T04:37:26.011Z,17.93
2022-07-31T04:39:54.388Z,18.01
2022-07-31T04:42:22.495Z,18.07
2022-07-31T04:44:50.647Z,18.10
2022-07-31T04:47:18.849Z,18.27
2022-07-31T04:49:52.352Z,18.35
2022-07-31T04:52:20.605Z,18.39
2022-07-31T04:54:50.789Z,18.57
2022-07-31T04:57:21.940Z,18.60
2022-07-31T05:00:00.459Z,18.70
2022-07-31T05:02:32.195Z,18.70
2022-07-31T05:05:01.745Z,18.70
2022-07-31T05:07:36.442Z,18.79
2022-07-31T05:10:30.937Z,18.87
2022-07-31T05:12:59.194Z,18.98
2022-07-31T05:15:27.410Z,19.14
2022-07-31T05:17:57.531Z,19.16
2022-07-31T05:20:52.902Z,19.15
2022-07-31T05:23:49.465Z,19.22
2022-07-31T05:26:36.371Z,19.29
2022-07-31T05:29:04.649Z,19.35
2022-07-31T05:31:32.784Z,19.41
2022-07-31T05:34:01.116Z,19.48
2022-07-31T05:36:31.025Z,19.62
2022-07-31T05:38:59.188Z,19.72
2022-07-31T05:41:49.037Z,19.76
2022-07-31T05:44:37.626Z,19.88
2022-07-31T05:47:08.168Z,19.90
2022-07-31T05:49:36.361Z,19.87
2022-07-31T05:52:06.819Z,19.94
2022-07-31T05:54:35.064Z,20.04
2022-07-31T05:57:33.738Z,20.12
2022-07-31T06:00:04.367Z,20.07
2022-07-31T06:02:39.930Z,19.90
2022-07-31T06:05:20.464Z,19.97
2022-07-31T06:07:51.879Z,19.97
2022-07-31T06:10:21.019Z,20.18
2022-07-31T06:12:49.371Z,20.33
2022-07-31T06:15:19.095Z,20.52
2022-07-31T06:17:47.636Z,20.66
2022-07-31T06:20:24.017Z,20.64
2022-07-31T06:22:53.815Z,20.49
2022-07-31T06:25:22.370Z,20.58
2022-07-31T06:27:59.358Z,20.74
2022-07-31T06:30:29.173Z,20.75
2022-07-31T06:32:57.278Z,20.85
2022-07-31T06:35:26.296Z,21.00
2022-07-31T06:38:14.693Z,21.07
2022-07-31T06:41:02.749Z,21.19
2022-07-31T06:43:45.769Z,21.36
2022-07-31T06:46:33.943Z,21.48
2022-07-31T06:49:25.017Z,21.71
2022-07-31T06:51:53.685Z,21.85
2022-07-31T06:54:26.892Z,21.79
2022-07-31T06:56:56.320Z,21.88
2022-07-31T06:59:40.368Z,22.22
2022-07-31T07:02:09.949Z,22.35
2022-07-31T07:04:58.501Z,22.61
2022-07-31T07:07:31.511Z,22.66
2022-07-31T07:10:02.109Z,22.96
2022-07-31T07:12:48.689Z,23.04
2022-07-31T07:15:16.883Z,23.08
2022-07-31T07:17:45.346Z,23.07
2022-07-31T07:20:18.337Z,23.08
2022-07-31T07:22:46.467Z,23.19
2022-07-31T07:25:22.682Z,23.64
2022-07-31T07:27:52.478Z,23.55
2022-07-31T07:30:20.762Z,23.60
2022-07-31T07:32:48.865Z,23.52
2022-07-31T07:35:17.001Z,23.80
2022-07-31T07:37:53.111Z,23.98
2022-07-31T07:40:23.055Z,24.34
2022-07-31T07:42:51.257Z,24.45
2022-07-31T07:45:19.790Z,24.56
2022-07-31T07:47:53.765Z,24.75
2022-07-31T07:50:42.650Z,24.91
2022-07-31T07:53:29.366Z,25.63
2022-07-31T07:56:19.058Z,25.53
2022-07-31T07:59:16.507Z,25.17
2022-07-31T08:02:03.552Z,25.26
2022-07-31T08:04:34.153Z,24.92
2022-07-31T08:07:03.717Z,25.38
2022-07-31T08:09:36.915Z,25.41
2022-07-31T08:12:25.510Z,25.89
2022-07-31T08:15:07.334Z,25.41
2022-07-31T08:18:04.704Z,26.98
2022-07-31T08:20:32.983Z,27.66
2022-07-31T08:23:01.116Z,26.89
2022-07-31T08:25:32.134Z,26.93
2022-07-31T08:28:02.267Z,26.73
2022-07-31T08:30:31.260Z,27.29
2022-07-31T08:32:59.974Z,27.19
2022-07-31T08:35:40.619Z,27.08
2022-07-31T08:38:13.904Z,27.17
2022-07-31T08:40:51.494Z,26.64
2022-07-31T08:46:10.561Z,27.08
2022-07-31T08:48:42.356Z,27.52
2022-07-31T08:51:13.709Z,28.15
2022-07-31T08:54:17.503Z,29.00
2022-07-31T08:56:47.119Z,28.59
2022-07-31T08:59:17.923Z,28.03
2022-07-31T09:01:47.174Z,27.59
2022-07-31T09:04:15.357Z,27.29
2022-07-31T09:06:43.766Z,27.34
2022-07-31T09:09:11.911Z,27.49
2022-07-31T09:11:48.141Z,27.42
2022-07-31T09:14:36.442Z,27.09
2022-07-31T09:17:09.369Z,27.54
2022-07-31T09:19:52.897Z,28.01
2022-07-31T09:22:28.031Z,28.24
2022-07-31T09:25:11.938Z,29.05
2022-07-31T09:27:40.548Z,29.63
2022-07-31T09:30:11.714Z,30.65
2022-07-31T09:33:14.241Z,30.59
2022-07-31T09:36:00.432Z,30.69
2022-07-31T09:38:34.777Z,29.85
2022-07-31T09:41:55.987Z,30.23
2022-07-31T09:44:14.044Z,30.35
2022-07-31T09:46:45.469Z,30.47
2022-07-31T09:49:14.056Z,29.90
2022-07-31T09:51:46.963Z,29.34
2022-07-31T09:54:24.194Z,29.95
2022-07-31T09:57:13.055Z,29.38
2022-07-31T09:59:47.097Z,29.10
2022-07-31T10:02:19.490Z,28.98
2022-07-31T10:04:51.752Z,28.98
2022-07-31T10:07:24.350Z,28.86
2022-07-31T10:10:07.871Z,28.60
2022-07-31T10:12:48.944Z,29.04
2022-07-31T10:15:18.704Z,28.84
2022-07-31T10:17:54.933Z,28.33
2022-07-31T10:21:00.663Z,28.84
2022-07-31T10:23:48.568Z,28.91
2022-07-31T10:26:17.055Z,29.21
2022-07-31T10:28:45.293Z,29.56
2022-07-31T10:31:13.855Z,29.71
2022-07-31T10:33:47.527Z,30.52
2022-07-31T10:36:37.820Z,29.82
2022-07-31T10:39:36.860Z,30.27
2022-07-31T10:42:37.202Z,31.47
2022-07-31T10:45:07.683Z,31.26
2022-07-31T10:47:57.622Z,30.45
2022-07-31T10:50:48.198Z,29.40
2022-07-31T10:53:50.207Z,29.66
2022-07-31T10:56:22.371Z,31.51
2022-07-31T10:59:12.169Z,31.59
2022-07-31T11:02:10.730Z,33.20
2022-07-31T11:04:43.455Z,32.41
2022-07-31T11:07:35.702Z,32.03
2022-07-31T11:10:24.724Z,31.01
2022-07-31T11:13:17.653Z,31.11
2022-07-31T11:15:48.921Z,30.51
2022-07-31T11:18:35.591Z,30.17
2022-07-31T11:21:37.973Z,30.66
2022-07-31T11:24:03.360Z,31.69
2022-07-31T11:26:41.696Z,31.78
2022-07-31T11:30:02.013Z,32.03
2022-07-31T11:32:14.357Z,32.05
2022-07-31T11:34:50.110Z,32.06
2022-07-31T11:37:21.628Z,31.92
2022-07-31T11:39:53.406Z,31.35
2022-07-31T11:42:26.341Z,32.03
2022-07-31T11:45:10.803Z,32.82
2022-07-31T11:48:09.720Z,31.90
2022-07-31T11:50:30.671Z,31.84
2022-07-31T11:53:04.120Z,32.03
2022-07-31T11:55:44.332Z,31.69
2022-07-31T11:58:12.620Z,31.25
2022-07-31T12:00:40.825Z,32.62
2022-07-31T12:03:09.883Z,32.94
2022-07-31T12:05:45.289Z,32.71
2022-07-31T12:08:14.473Z,32.39
2022-07-31T12:10:44.475Z,32.56
2022-07-31T12:13:16.108Z,32.64
2022-07-31T12:16:00.458Z,32.76
2022-07-31T12:18:30.036Z,32.99
2022-07-31T12:20:59.738Z,32.47
2022-07-31T12:23:41.352Z,32.90
2022-07-31T12:26:13.245Z,34.04
2022-07-31T12:28:41.709Z,34.26
2022-07-31T12:31:09.762Z,34.50
2022-07-31T12:33:41.806Z,34.21
2022-07-31T12:36:14.907Z,35.14
2022-07-31T12:38:48.026Z,34.84
2022-07-31T12:41:18.439Z,34.94
2022-07-31T12:43:51.497Z,34.77
2022-07-31T12:46:22.705Z,34.60
2022-07-31T12:48:51.226Z,34.51
2022-07-31T12:51:21.220Z,35.50
2022-07-31T12:54:08.424Z,35.22
2022-07-31T12:56:38.915Z,34.70
2022-07-31T12:59:08.130Z,34.72
2022-07-31T13:01:36.758Z,33.74
2022-07-31T13:04:08.042Z,34.39
2022-07-31T13:06:48.921Z,34.07
2022-07-31T13:09:17.388Z,35.13
2022-07-31T13:11:48.347Z,35.35
2022-07-31T13:14:17.276Z,35.91
2022-07-31T13:16:45.580Z,36.08
2022-07-31T13:19:14.206Z,36.17
2022-07-31T13:21:49.447Z,36.07
2022-07-31T13:24:19.529Z,36.25
2022-07-31T13:26:50.125Z,36.80
2022-07-31T13:29:18.661Z,36.93
2022-07-31T13:31:46.789Z,37.31
2022-07-31T13:34:14.922Z,35.01
2022-07-31T13:36:43.121Z,34.64
2022-07-31T13:39:11.665Z,35.48
2022-07-31T13:41:40.215Z,36.91
2022-07-31T13:44:10.109Z,36.48
2022-07-31T13:46:38.383Z,36.81
2022-07-31T13:49:09.514Z,37.38
2022-07-31T13:51:38.284Z,37.09
2022-07-31T13:54:06.763Z,36.49
2022-07-31T13:56:42.251Z,35.89
2022-07-31T13:59:14.305Z,36.20
2022-07-31T14:02:03.359Z,36.71
2022-07-31T14:04:38.303Z,36.26
2022-07-31T14:07:08.342Z,35.43
2022-07-31T14:09:37.511Z,34.36
2022-07-31T14:12:06.480Z,34.48
2022-07-31T14:14:36.201Z,35.44
2022-07-31T14:17:04.650Z,35.35
2022-07-31T14:19:40.535Z,35.33
2022-07-31T14:22:14.133Z,36.06
2022-07-31T14:24:49.402Z,36.22
2022-07-31T14:27:19.979Z,36.52
2022-07-31T14:29:52.295Z,36.41
2022-07-31T14:32:22.097Z,35.19
2022-07-31T14:34:51.232Z,34.84
2022-07-31T14:37:20.546Z,34.89
2022-07-31T14:39:48.902Z,35.26
2022-07-31T14:42:22.523Z,35.26
2022-07-31T14:44:55.406Z,34.85
2022-07-31T14:47:23.845Z,34.84
2022-07-31T14:50:07.287Z,34.75
2022-07-31T14:52:38.383Z,34.55
2022-07-31T14:55:07.733Z,34.40
2022-07-31T14:57:35.992Z,34.48
2022-07-31T15:00:12.386Z,35.35
2022-07-31T15:02:40.987Z,35.38
2022-07-31T15:06:39.592Z,34.86
2022-07-31T15:07:58.446Z,34.42
2022-07-31T15:10:26.607Z,34.77
2022-07-31T15:12:54.857Z,35.53
2022-07-31T15:15:24.517Z,35.67
2022-07-31T15:17:56.710Z,35.95
2022-07-31T15:20:32.906Z,34.82
2022-07-31T15:23:01.724Z,34.23
2022-07-31T15:25:29.903Z,33.56
2022-07-31T15:27:58.055Z,33.28
2022-07-31T15:30:27.700Z,33.13
2022-07-31T15:32:55.868Z,32.90
2022-07-31T15:35:24.149Z,32.92
2022-07-31T15:37:52.297Z,32.92
2022-07-31T15:40:20.653Z,32.83
2022-07-31T15:42:49.902Z,32.83
2022-07-31T15:45:19.937Z,32.74
2022-07-31T15:47:49.677Z,32.74
2022-07-31T15:50:20.134Z,32.60
2022-07-31T15:52:48.352Z,32.60
2022-07-31T15:55:17.753Z,32.53
2022-07-31T15:57:46.686Z,32.46
2022-07-31T16:00:15.867Z,32.17
2022-07-31T16:02:45.642Z,32.04
2022-07-31T16:05:35.865Z,31.96
2022-07-31T16:08:32.495Z,31.97
2022-07-31T16:10:54.860Z,31.87
2022-07-31T16:13:23.805Z,31.84
2022-07-31T16:15:52.808Z,31.80
2022-07-31T16:18:21.149Z,31.77
2022-07-31T16:20:50.824Z,31.74
2022-07-31T16:23:18.975Z,31.86
2022-07-31T16:25:47.184Z,32.17
2022-07-31T16:28:15.434Z,32.01
2022-07-31T16:30:45.563Z,32.25
2022-07-31T16:33:13.867Z,32.40
2022-07-31T16:35:42.164Z,32.05
2022-07-31T16:38:11.764Z,31.85
2022-07-31T16:40:39.822Z,31.59
2022-07-31T16:43:47.508Z,31.53
2022-07-31T16:45:57.081Z,31.44
2022-07-31T16:48:25.312Z,31.05
2022-07-31T16:50:54.948Z,31.08
2022-07-31T16:54:14.562Z,31.07
2022-07-31T16:56:16.026Z,30.80
2022-07-31T16:58:44.693Z,30.74
2022-07-31T17:01:58.749Z,30.82
2022-07-31T17:04:04.058Z,30.58
2022-07-31T17:06:36.187Z,30.49
2022-07-31T17:09:17.019Z,30.29
2022-07-31T17:11:49.050Z,30.29
2022-07-31T17:14:18.879Z,30.24
2022-07-31T17:16:49.192Z,30.23
2022-07-31T17:19:42.827Z,30.06
2022-07-31T17:22:08.025Z,30.20
2022-07-31T17:24:38.223Z,30.20
2022-07-31T17:27:08.539Z,29.99
2022-07-31T17:29:37.791Z,29.98
2022-07-31T17:32:06.858Z,30.09
2022-07-31T17:34:35.325Z,29.81
2022-07-31T17:37:04.053Z,29.86
2022-07-31T17:39:32.600Z,29.95
2022-07-31T17:42:02.010Z,29.87
2022-07-31T17:44:30.990Z,29.79
2022-07-31T17:46:59.968Z,29.82
2022-07-31T17:49:32.073Z,29.61
2022-07-31T17:52:00.626Z,29.61
2022-07-31T17:54:30.239Z,29.55
2022-07-31T17:56:58.422Z,29.38
2022-07-31T17:59:28.497Z,29.19
2022-07-31T18:02:00.102Z,29.13
2022-07-31T18:04:28.911Z,28.94
2022-07-31T18:06:57.574Z,28.89
2022-07-31T18:09:26.257Z,28.93
2022-07-31T18:11:55.234Z,28.87
2022-07-31T18:14:24.858Z,28.66
2022-07-31T18:16:54.588Z,28.57
2022-07-31T18:19:22.961Z,28.49
2022-07-31T18:21:52.459Z,28.35
2022-07-31T18:24:21.349Z,28.15
2022-07-31T18:26:49.754Z,28.05
2022-07-31T18:29:18.767Z,27.99
2022-07-31T18:31:47.409Z,27.85
2022-07-31T18:34:17.195Z,27.79
2022-07-31T18:36:45.601Z,27.71
2022-07-31T18:39:13.839Z,27.56
2022-07-31T18:41:46.847Z,27.31
2022-07-31T18:44:17.228Z,27.09
2022-07-31T18:46:45.559Z,26.92
2022-07-31T18:51:01.572Z,26.79
2022-07-31T18:52:03.645Z,26.65
2022-07-31T18:54:32.034Z,26.52
2022-07-31T18:57:00.627Z,26.43
2022-07-31T18:59:28.742Z,26.34
2022-07-31T19:01:57.312Z,26.27
2022-07-31T19:04:25.610Z,26.32
2022-07-31T19:06:54.663Z,26.40
2022-07-31T19:09:25.217Z,26.41
2022-07-31T19:11:58.515Z,26.36
2022-07-31T19:14:27.078Z,26.25
2022-07-31T19:16:57.827Z,26.17
2022-07-31T19:19:28.402Z,26.11
2022-07-31T19:22:14.365Z,26.05
2022-07-31T19:24:48.073Z,26.00
2022-07-31T19:27:16.265Z,25.98
2022-07-31T19:29:44.424Z,25.91
2022-07-31T19:32:12.884Z,26.09
2022-07-31T19:34:41.970Z,26.09
2022-07-31T19:37:16.143Z,26.04
2022-07-31T19:39:45.877Z,25.90
2022-07-31T19:42:14.058Z,25.79
2022-07-31T19:44:42.245Z,25.67
2022-07-31T19:47:10.396Z,25.61
2022-07-31T19:49:41.337Z,25.50
2022-07-31T19:52:09.590Z,25.35
2022-07-31T19:54:38.591Z,25.15
2022-07-31T19:57:08.184Z,24.99
2022-07-31T19:59:36.384Z,24.87
2022-07-31T20:02:04.905Z,24.72
2022-07-31T20:04:33.337Z,24.62
2022-07-31T20:07:01.494Z,24.54
2022-07-31T20:09:30.896Z,24.47
2022-07-31T20:11:58.907Z,24.34
2022-07-31T20:14:28.810Z,24.24
2022-07-31T20:16:57.016Z,24.15
2022-07-31T20:19:25.309Z,24.03
2022-07-31T20:21:53.685Z,23.93
2022-07-31T20:24:21.950Z,23.82
2022-07-31T20:26:50.043Z,23.71
2022-07-31T20:29:18.093Z,23.61
2022-07-31T20:31:47.710Z,23.54
2022-07-31T20:34:16.306Z,23.47
2022-07-31T20:36:44.428Z,23.40
2022-07-31T20:39:12.630Z,23.29
2022-07-31T20:41:40.707Z,23.18
2022-07-31T20:44:08.859Z,23.12
2022-07-31T20:46:36.945Z,23.03
2022-07-31T20:49:06.713Z,22.95
2022-07-31T20:51:35.031Z,22.81
2022-07-31T20:54:04.273Z,22.73
2022-07-31T20:56:32.489Z,22.64
2022-07-31T20:59:00.596Z,22.52
2022-07-31T21:01:28.812Z,22.44
2022-07-31T21:03:57.042Z,22.36
2022-07-31T21:06:26.597Z,22.25
2022-07-31T21:08:54.537Z,22.14
2022-07-31T21:11:22.695Z,22.10
2022-07-31T21:14:00.050Z,22.01
2022-07-31T21:16:28.236Z,22.00
2022-07-31T21:18:56.423Z,21.90
2022-07-31T21:21:26.069Z,21.85
2022-07-31T21:23:54.062Z,21.83
2022-07-31T21:26:22.727Z,21.77
2022-07-31T21:28:51.710Z,21.76
2022-07-31T21:31:20.429Z,21.65
2022-07-31T21:33:48.954Z,21.64
2022-07-31T21:36:17.566Z,21.65
2022-07-31T21:38:47.578Z,21.62
2022-07-31T21:41:16.431Z,21.62
2022-07-31T21:43:58.575Z,21.57
2022-07-31T21:46:29.566Z,21.51
2022-07-31T21:48:58.177Z,21.48
2022-07-31T21:51:26.805Z,21.50
2022-07-31T21:53:56.229Z,21.48
2022-07-31T21:56:24.360Z,21.45
2022-07-31T21:58:52.501Z,21.44
2022-07-31T22:01:20.851Z,21.44
2022-07-31T22:03:48.977Z,21.46
2022-07-31T22:06:34.726Z,21.40
2022-07-31T22:09:04.309Z,21.39
2022-07-31T22:11:33.701Z,21.32
2022-07-31T22:14:01.909Z,21.28
2022-07-31T22:16:30.676Z,21.29
2022-07-31T22:18:59.351Z,21.25
2022-07-31T22:21:29.098Z,21.24
2022-07-31T22:23:58.102Z,21.19
2022-07-31T22:26:27.891Z,21.10
2022-07-31T22:28:56.398Z,21.03
2022-07-31T22:31:25.452Z,20.98
2022-07-31T22:33:54.079Z,20.89
2022-07-31T22:36:22.279Z,20.84
2022-07-31T22:38:50.768Z,20.78
2022-07-31T22:41:18.963Z,20.73
2022-07-31T22:44:13.647Z,20.73
2022-07-31T22:46:37.891Z,20.68
2022-07-31T22:49:08.158Z,20.63
2022-07-31T22:51:38.561Z,20.54
2022-07-31T22:54:07.391Z,20.49
2022-07-31T22:56:35.505Z,20.45
2022-07-31T22:59:05.116Z,20.50
2022-07-31T23:01:33.385Z,20.53
2022-07-31T23:04:01.559Z,20.48
2022-07-31T23:06:32.557Z,20.41
2022-07-31T23:09:02.004Z,20.36
2022-07-31T23:11:30.480Z,20.33
2022-07-31T23:13:58.867Z,20.26
2022-07-31T23:16:28.463Z,20.24
2022-07-31T23:18:56.692Z,20.22
2022-07-31T23:21:25.263Z,20.17
2022-07-31T23:23:53.589Z,20.07
2022-07-31T23:26:24.760Z,20.03
2022-07-31T23:28:54.314Z,19.96
2022-07-31T23:31:23.272Z,19.91
2022-07-31T23:33:54.142Z,19.85
2022-07-31T23:36:22.731Z,19.82
2022-07-31T23:38:51.087Z,19.81
2022-07-31T23:41:39.836Z,19.79
2022-07-31T23:44:10.483Z,19.85
2022-07-31T23:46:40.436Z,19.88
2022-07-31T23:49:10.380Z,19.97
2022-07-31T23:51:38.564Z,19.92
2022-07-31T23:54:07.615Z,19.89
2022-07-31T23:56:35.805Z,19.86
2022-07-31T23:59:04.036Z,19.81
